Terminal Aerodrome Forecast
Issued by NWS Wilmington, OH

Current Version | Previous Version | Text Only | Print | Product List | Glossary Off
Versions: 1 2 3 4 5 6 7 8 9 10 11 12 13

441
FTUS41 KILN 241130
TAFILN
TAF
KILN 241130Z 2412/2512 05008KT P6SM FEW090
     FM241500 07012KT P6SM SCT200
     FM242300 09010KT P6SM SCT050 BKN200
     FM250900 12006KT P6SM BKN028=

USA.gov is the U.S. government's official web portal to all federal, state and local government web resources and services.